Time;durP1;ratioP1;P1;durP2;ratioP2;P2;SDS_P1;SDS_P2;PMS_P1;PMS_P2;Temp;Humidity;BMP_temperature;BMP_pressure;BME280_temperature;BME280_humidity;BME280_pressure;Samples;Min_cycle;Max_cycle;Signal;HPM_P1;HPM_P2
2023/07/29 00:01:25;;;;;;;7.18;4.25;;;19.10;99.90;;;;;;5044672;28;20039;-84
2023/07/29 00:03:51;;;;;;;9.02;4.55;;;19.10;99.90;;;;;;5060697;28;20074;-85
2023/07/29 00:06:16;;;;;;;9.15;4.30;;;19.20;99.90;;;;;;5044335;28;20059;-85
2023/07/29 00:08:42;;;;;;;9.10;3.78;;;19.20;99.90;;;;;;5060613;28;20030;-85
2023/07/29 00:11:08;;;;;;;8.38;4.18;;;19.20;99.90;;;;;;5011613;28;20044;-85
2023/07/29 00:13:34;;;;;;;9.77;4.05;;;19.20;99.90;;;;;;5044566;28;20052;-85
2023/07/29 00:16:00;;;;;;;13.25;4.18;;;19.20;99.90;;;;;;5027873;28;20036;-85
2023/07/29 00:18:27;;;;;;;10.40;3.90;;;19.10;99.90;;;;;;5060877;28;20036;-85
2023/07/29 00:20:53;;;;;;;7.93;3.70;;;19.10;99.90;;;;;;5044300;28;20055;-85
2023/07/29 00:23:19;;;;;;;12.02;4.47;;;19.10;99.90;;;;;;5044022;28;20362;-85
2023/07/29 00:25:45;;;;;;;7.93;3.67;;;19.10;99.90;;;;;;5027878;28;20446;-85
2023/07/29 00:28:12;;;;;;;10.30;4.55;;;19.10;99.90;;;;;;5060774;28;20099;-84
2023/07/29 00:30:38;;;;;;;11.00;4.50;;;19.00;99.90;;;;;;5060950;28;20028;-85
2023/07/29 00:33:05;;;;;;;10.15;5.20;;;19.00;99.90;;;;;;5044395;28;20040;-84
2023/07/29 00:35:30;;;;;;;14.45;5.07;;;19.00;99.90;;;;;;5044116;28;20039;-84
2023/07/29 00:37:59;;;;;;;9.60;4.90;;;19.00;99.90;;;;;;5043973;28;20093;-85
2023/07/29 00:40:28;;;;;;;11.85;5.20;;;19.00;99.90;;;;;;5012093;28;20036;-84
2023/07/29 00:42:54;;;;;;;11.77;5.20;;;19.00;99.90;;;;;;5043938;28;20082;-85
2023/07/29 00:45:20;;;;;;;12.10;5.28;;;19.00;99.90;;;;;;5060682;28;20036;-85
2023/07/29 00:47:47;;;;;;;8.60;4.75;;;19.00;99.90;;;;;;5060371;28;20036;-84
2023/07/29 00:50:15;;;;;;;13.68;5.85;;;19.00;99.90;;;;;;5053240;28;20036;-85
2023/07/29 00:52:41;;;;;;;10.73;4.70;;;18.90;99.90;;;;;;5045418;28;20040;-85
2023/07/29 00:55:08;;;;;;;10.80;5.00;;;19.00;99.90;;;;;;5046209;28;20327;-85
2023/07/29 00:57:35;;;;;;;12.43;5.18;;;18.90;99.90;;;;;;5011400;28;20066;-84
2023/07/29 01:00:02;;;;;;;10.68;5.85;;;18.90;99.90;;;;;;5027618;28;20036;-85
2023/07/29 01:02:32;;;;;;;9.23;5.47;;;18.90;99.90;;;;;;5060849;28;20036;-85
2023/07/29 01:04:59;;;;;;;12.77;5.85;;;18.90;99.90;;;;;;5043964;28;20032;-85
2023/07/29 01:07:47;;;;;;;10.00;5.90;;;18.90;99.90;;;;;;5027169;28;20032;-85
2023/07/29 01:10:22;;;;;;;11.35;6.35;;;18.90;99.90;;;;;;5050148;28;20039;-84
2023/07/29 01:13:04;;;;;;;11.00;6.00;;;18.90;99.90;;;;;;5047428;28;20346;-87
2023/07/29 01:15:33;;;;;;;9.50;5.75;;;18.90;99.90;;;;;;5080715;28;20044;-84
2023/07/29 01:18:04;;;;;;;11.68;6.25;;;18.90;99.90;;;;;;5047171;28;20039;-85
2023/07/29 01:20:33;;;;;;;11.82;5.85;;;18.90;99.90;;;;;;5047596;28;20042;-84
2023/07/29 01:22:59;;;;;;;11.73;5.90;;;18.80;99.90;;;;;;5063128;28;20028;-84
2023/07/29 01:25:25;;;;;;;10.82;6.50;;;18.80;99.90;;;;;;5047129;28;20089;-84
2023/07/29 01:27:52;;;;;;;11.20;6.57;;;18.80;99.90;;;;;;5014531;28;20036;-85
2023/07/29 01:30:22;;;;;;;10.93;6.07;;;18.80;99.90;;;;;;5080420;28;20028;-85
2023/07/29 01:32:56;;;;;;;11.20;5.60;;;18.80;99.90;;;;;;5046978;28;20024;-85
2023/07/29 01:35:33;;;;;;;10.20;6.03;;;18.80;99.90;;;;;;5064094;28;20043;-84
2023/07/29 01:38:12;;;;;;;11.10;6.38;;;18.80;99.90;;;;;;5063195;28;20427;-85
2023/07/29 01:40:40;;;;;;;11.30;5.82;;;18.80;99.90;;;;;;5047091;28;20036;-84
2023/07/29 01:43:08;;;;;;;11.30;5.88;;;18.80;99.90;;;;;;5063080;28;20043;-85
2023/07/29 01:45:38;;;;;;;10.15;6.22;;;18.80;99.90;;;;;;5080085;28;20033;-84
2023/07/29 01:48:07;;;;;;;10.95;5.65;;;18.80;99.90;;;;;;5042944;28;20032;-84
2023/07/29 01:50:34;;;;;;;12.45;6.50;;;18.80;99.90;;;;;;5060149;28;20103;-84
2023/07/29 01:53:01;;;;;;;8.48;6.03;;;18.80;99.90;;;;;;5026020;28;20086;-85
2023/07/29 01:55:27;;;;;;;10.30;5.47;;;18.80;99.90;;;;;;5043307;28;20040;-84
2023/07/29 01:57:53;;;;;;;17.02;6.70;;;18.70;99.90;;;;;;5043158;28;20125;-84
2023/07/29 02:00:20;;;;;;;11.27;5.88;;;18.80;99.90;;;;;;5076272;28;20059;-85
2023/07/29 02:02:46;;;;;;;12.10;5.72;;;18.70;99.90;;;;;;5010449;28;20438;-85
2023/07/29 02:05:12;;;;;;;13.77;5.88;;;18.60;99.90;;;;;;5010500;28;20058;-85
2023/07/29 02:07:38;;;;;;;13.23;5.53;;;18.70;99.90;;;;;;5009682;28;20040;-85
2023/07/29 02:10:05;;;;;;;13.02;5.10;;;18.70;99.90;;;;;;5026525;28;20033;-84
2023/07/29 02:12:31;;;;;;;13.10;5.90;;;18.70;99.90;;;;;;5059398;28;20112;-84
2023/07/29 02:14:57;;;;;;;9.55;5.47;;;18.70;99.90;;;;;;5043202;28;20331;-84
2023/07/29 02:17:23;;;;;;;10.77;5.38;;;18.70;99.90;;;;;;5009930;28;20045;-85
2023/07/29 02:19:48;;;;;;;8.80;5.05;;;18.60;99.90;;;;;;5059423;28;20086;-84
2023/07/29 02:22:16;;;;;;;13.65;6.00;;;18.60;99.90;;;;;;5009137;28;20041;-85
2023/07/29 02:24:42;;;;;;;14.00;5.88;;;18.60;99.90;;;;;;5009980;28;20037;-85
2023/07/29 02:27:08;;;;;;;12.48;6.32;;;18.60;99.90;;;;;;5025848;28;20028;-85
2023/07/29 02:29:35;;;;;;;10.95;6.40;;;18.60;99.90;;;;;;5009867;28;20031;-84
2023/07/29 02:32:00;;;;;;;11.63;6.25;;;18.60;99.90;;;;;;5025687;28;20028;-84
2023/07/29 02:34:27;;;;;;;10.75;6.03;;;18.60;99.90;;;;;;4993729;28;20041;-85
2023/07/29 02:36:53;;;;;;;12.13;6.10;;;18.50;99.90;;;;;;5008964;28;20313;-85
2023/07/29 02:39:19;;;;;;;12.68;6.78;;;18.50;99.90;;;;;;5042750;28;20108;-85
2023/07/29 02:41:45;;;;;;;12.57;5.90;;;18.50;99.90;;;;;;5042474;28;20080;-84
2023/07/29 02:44:11;;;;;;;11.30;5.75;;;18.50;99.90;;;;;;5025696;28;20125;-85
2023/07/29 02:46:37;;;;;;;9.75;5.32;;;18.50;99.90;;;;;;4994093;28;20319;-85
2023/07/29 02:49:03;;;;;;;12.32;5.20;;;18.50;99.90;;;;;;5025510;28;20045;-84
2023/07/29 02:51:30;;;;;;;11.70;4.88;;;18.50;99.90;;;;;;5009763;28;20114;-85
2023/07/29 02:53:56;;;;;;;16.33;5.97;;;18.40;99.90;;;;;;5041536;28;20033;-85
2023/07/29 02:56:22;;;;;;;10.38;4.75;;;18.50;99.90;;;;;;5041859;28;20043;-85
2023/07/29 02:58:51;;;;;;;8.55;4.47;;;18.40;99.90;;;;;;5009462;28;20070;-85
2023/07/29 03:01:18;;;;;;;9.50;4.97;;;18.40;99.90;;;;;;5025516;28;20117;-85
2023/07/29 03:03:44;;;;;;;9.60;4.57;;;18.40;99.90;;;;;;5041786;28;20035;-84
2023/07/29 03:06:13;;;;;;;11.52;5.00;;;18.40;99.90;;;;;;5041877;28;20039;-84
2023/07/29 03:08:39;;;;;;;10.05;4.60;;;18.40;99.90;;;;;;5024695;28;20406;-84
2023/07/29 03:11:07;;;;;;;11.25;4.72;;;18.30;99.90;;;;;;5041787;28;20059;-85
2023/07/29 03:13:33;;;;;;;7.63;4.50;;;18.30;99.90;;;;;;5041543;28;20077;-85
2023/07/29 03:16:10;;;;;;;9.88;4.57;;;18.30;99.90;;;;;;5041764;28;20064;-85
2023/07/29 03:18:38;;;;;;;9.13;4.55;;;18.30;99.90;;;;;;5041414;28;20104;-84
2023/07/29 03:21:05;;;;;;;16.23;5.05;;;18.30;99.90;;;;;;5025358;28;20032;-84
2023/07/29 03:23:32;;;;;;;10.60;4.43;;;18.20;99.90;;;;;;5024385;28;20336;-84
2023/07/29 03:25:59;;;;;;;9.52;4.30;;;18.20;99.90;;;;;;5025337;28;20021;-84
2023/07/29 03:28:27;;;;;;;11.43;4.30;;;18.20;99.90;;;;;;5024745;28;20077;-85
2023/07/29 03:30:54;;;;;;;9.07;4.47;;;18.10;99.90;;;;;;5024988;28;20490;-84
2023/07/29 03:33:20;;;;;;;13.07;4.60;;;18.10;99.90;;;;;;5024556;28;20056;-84
2023/07/29 03:35:49;;;;;;;15.90;4.70;;;18.10;99.90;;;;;;5024928;28;20040;-84
2023/07/29 03:38:15;;;;;;;10.88;4.60;;;18.10;99.90;;;;;;5040318;28;20025;-84
2023/07/29 03:40:42;;;;;;;11.40;4.10;;;18.00;99.90;;;;;;5024960;28;20059;-84
2023/07/29 03:43:08;;;;;;;11.18;5.05;;;18.00;99.90;;;;;;5024338;28;20064;-86
2023/07/29 03:45:35;;;;;;;9.73;4.90;;;18.00;99.90;;;;;;5024459;28;20032;-85
2023/07/29 03:48:02;;;;;;;9.95;4.35;;;18.00;99.90;;;;;;5040845;28;20481;-85
2023/07/29 03:50:29;;;;;;;7.60;3.95;;;18.00;99.90;;;;;;5008047;28;20701;-84
2023/07/29 03:52:55;;;;;;;10.65;4.68;;;18.00;99.90;;;;;;5040513;28;20031;-84
2023/07/29 03:55:24;;;;;;;11.45;4.30;;;17.90;99.90;;;;;;5041233;28;20043;-84
2023/07/29 03:57:50;;;;;;;12.15;4.45;;;17.90;99.90;;;;;;5024439;28;20056;-85
2023/07/29 04:00:16;;;;;;;9.15;4.18;;;17.90;99.90;;;;;;5008586;28;20051;-84
2023/07/29 04:02:42;;;;;;;12.93;3.95;;;17.90;99.90;;;;;;5057663;28;20431;-84
2023/07/29 04:05:09;;;;;;;10.93;3.90;;;17.90;99.90;;;;;;5057670;28;20107;-84
2023/07/29 04:07:36;;;;;;;10.38;4.07;;;17.80;99.90;;;;;;5040338;28;20119;-84
2023/07/29 04:10:03;;;;;;;10.00;4.25;;;17.80;99.90;;;;;;5057940;28;20033;-84
2023/07/29 04:12:29;;;;;;;13.05;4.57;;;17.80;99.90;;;;;;5024358;28;20032;-84
2023/07/29 04:14:55;;;;;;;12.95;4.18;;;17.80;99.90;;;;;;5024689;28;20079;-84
2023/07/29 04:17:21;;;;;;;10.40;4.45;;;17.80;99.90;;;;;;5008094;28;20036;-84
2023/07/29 04:19:47;;;;;;;12.43;3.80;;;17.80;99.90;;;;;;5024755;28;20374;-84
2023/07/29 04:22:15;;;;;;;10.68;3.33;;;17.90;99.90;;;;;;5056569;28;20103;-84
2023/07/29 04:24:41;;;;;;;9.07;3.65;;;17.80;99.90;;;;;;5040771;28;20548;-84
2023/07/29 04:27:07;;;;;;;11.48;3.58;;;17.80;99.90;;;;;;5024445;28;20025;-84
2023/07/29 04:29:35;;;;;;;9.95;3.38;;;17.80;99.90;;;;;;5041020;28;20097;-84
2023/07/29 04:32:02;;;;;;;8.50;3.50;;;17.80;99.90;;;;;;5029077;28;20032;-84
2023/07/29 04:34:28;;;;;;;10.20;3.70;;;17.80;99.90;;;;;;5028117;28;20040;-84
2023/07/29 04:36:54;;;;;;;9.40;3.67;;;17.80;99.90;;;;;;5011299;28;20028;-85
2023/07/29 04:39:20;;;;;;;9.93;3.05;;;17.80;99.90;;;;;;5011896;28;20127;-85
2023/07/29 04:41:46;;;;;;;9.60;3.45;;;17.80;99.90;;;;;;5028064;28;20033;-84
2023/07/29 04:44:13;;;;;;;9.38;3.40;;;17.70;99.90;;;;;;5028415;28;20127;-84
2023/07/29 04:46:39;;;;;;;9.82;3.75;;;17.70;99.90;;;;;;5045525;28;20112;-84
2023/07/29 04:49:05;;;;;;;7.65;3.15;;;17.70;99.90;;;;;;5027811;28;20419;-84
2023/07/29 04:51:32;;;;;;;9.57;3.28;;;17.80;99.90;;;;;;5027770;28;20120;-84
2023/07/29 04:53:58;;;;;;;9.48;3.25;;;17.80;99.90;;;;;;5043796;28;20036;-84
2023/07/29 04:56:25;;;;;;;10.38;3.92;;;17.80;99.90;;;;;;5011785;28;20416;-84
2023/07/29 04:58:53;;;;;;;8.95;3.33;;;17.80;99.90;;;;;;5044632;28;20105;-84
2023/07/29 05:01:19;;;;;;;10.07;3.25;;;17.80;99.90;;;;;;5027631;28;20486;-85
2023/07/29 05:03:45;;;;;;;10.07;3.33;;;17.80;99.90;;;;;;5043977;28;20427;-85
2023/07/29 05:06:12;;;;;;;8.95;3.20;;;17.80;99.90;;;;;;5027971;28;20025;-84
2023/07/29 05:08:38;;;;;;;8.98;3.15;;;17.80;99.90;;;;;;5026994;28;20039;-85
2023/07/29 05:11:04;;;;;;;11.18;3.10;;;17.80;99.90;;;;;;5011638;28;20037;-85
2023/07/29 05:13:30;;;;;;;10.63;3.70;;;17.80;99.90;;;;;;5027117;28;20300;-84
2023/07/29 05:15:56;;;;;;;10.88;3.47;;;17.80;99.90;;;;;;5027610;28;20029;-84
2023/07/29 05:18:23;;;;;;;12.52;3.88;;;17.80;99.90;;;;;;5027241;28;20035;-85
2023/07/29 05:20:49;;;;;;;12.10;3.42;;;17.80;99.90;;;;;;5027811;28;20053;-85
2023/07/29 05:23:15;;;;;;;9.18;3.67;;;17.80;99.90;;;;;;5059842;28;20396;-84
2023/07/29 05:25:41;;;;;;;10.38;3.75;;;17.80;99.90;;;;;;5060454;28;20033;-84
2023/07/29 05:28:07;;;;;;;8.65;3.75;;;17.80;99.90;;;;;;5043592;28;20482;-84
2023/07/29 05:30:37;;;;;;;9.93;3.97;;;17.90;99.90;;;;;;5027203;28;20120;-84
2023/07/29 05:33:09;;;;;;;14.65;3.60;;;17.90;99.90;;;;;;5012020;28;20041;-84
2023/07/29 05:35:35;;;;;;;11.98;4.13;;;17.90;99.90;;;;;;5011635;28;20047;-84
2023/07/29 05:38:03;;;;;;;15.32;4.07;;;17.90;99.90;;;;;;5010308;28;20041;-84
2023/07/29 05:40:29;;;;;;;11.02;4.22;;;17.90;99.90;;;;;;5042932;28;20037;-85
2023/07/29 05:42:56;;;;;;;10.95;3.88;;;17.90;99.90;;;;;;5026928;28;20090;-85
2023/07/29 05:45:22;;;;;;;13.98;4.20;;;17.90;99.90;;;;;;5026844;28;20127;-85
2023/07/29 05:47:48;;;;;;;12.18;4.00;;;18.00;99.90;;;;;;5032711;28;20067;-85
2023/07/29 05:50:14;;;;;;;10.30;4.40;;;17.90;99.90;;;;;;5043723;28;20028;-84
2023/07/29 05:52:40;;;;;;;11.27;4.70;;;17.90;99.90;;;;;;5058968;28;20035;-84
2023/07/29 05:55:06;;;;;;;12.70;4.57;;;17.90;99.90;;;;;;4994656;28;20029;-84
2023/07/29 05:57:33;;;;;;;14.88;4.13;;;18.00;99.90;;;;;;4993833;28;20082;-85
2023/07/29 05:59:58;;;;;;;12.23;4.60;;;18.00;99.90;;;;;;5059747;28;20040;-84
2023/07/29 06:02:24;;;;;;;13.18;4.80;;;18.00;99.90;;;;;;5042956;28;20033;-85
2023/07/29 06:04:52;;;;;;;11.93;4.10;;;18.10;99.90;;;;;;5043213;28;20039;-84
2023/07/29 06:07:18;;;;;;;12.40;4.00;;;18.10;99.90;;;;;;5009741;28;20036;-84
2023/07/29 06:09:44;;;;;;;10.00;3.78;;;18.20;99.90;;;;;;5042850;28;20032;-84
2023/07/29 06:12:10;;;;;;;12.45;4.60;;;18.20;99.90;;;;;;5059213;28;20036;-84
2023/07/29 06:14:35;;;;;;;10.32;4.10;;;18.30;99.90;;;;;;4993997;28;20378;-85
2023/07/29 06:17:02;;;;;;;11.27;4.22;;;18.30;99.90;;;;;;5042685;28;20044;-84
2023/07/29 06:19:28;;;;;;;11.15;4.15;;;18.40;99.90;;;;;;5010422;28;20052;-85
2023/07/29 06:21:55;;;;;;;13.52;4.78;;;18.40;99.90;;;;;;5025736;28;20117;-84
2023/07/29 06:24:21;;;;;;;11.88;4.78;;;18.50;99.90;;;;;;5026118;28;20071;-84
2023/07/29 06:26:47;;;;;;;11.02;4.35;;;18.50;99.90;;;;;;4993488;28;20090;-84
2023/07/29 06:29:13;;;;;;;14.20;4.38;;;18.60;99.90;;;;;;5042878;28;20249;-84
2023/07/29 06:31:39;;;;;;;12.65;4.60;;;18.70;99.90;;;;;;5058887;28;20502;-86
2023/07/29 06:34:05;;;;;;;13.80;4.72;;;18.80;99.90;;;;;;5009751;28;20112;-86
2023/07/29 06:36:31;;;;;;;14.95;4.47;;;18.80;99.90;;;;;;5042603;28;20051;-89
2023/07/29 06:38:58;;;;;;;11.60;3.78;;;18.80;99.90;;;;;;5042234;28;20380;-85
2023/07/29 06:41:23;;;;;;;10.30;3.90;;;18.80;99.90;;;;;;5042545;28;20048;-85
2023/07/29 06:43:49;;;;;;;10.30;4.32;;;18.90;99.90;;;;;;5042123;28;20402;-86
2023/07/29 06:46:15;;;;;;;14.38;4.22;;;18.90;99.90;;;;;;5043897;28;20214;-85
2023/07/29 06:48:41;;;;;;;13.20;4.13;;;18.90;99.90;;;;;;5012980;28;20040;-85
2023/07/29 06:51:07;;;;;;;11.60;3.65;;;18.90;99.90;;;;;;5013264;28;20038;-86
2023/07/29 06:53:34;;;;;;;11.13;3.60;;;18.90;99.90;;;;;;5060920;28;20032;-86
2023/07/29 06:56:15;;;;;;;13.40;3.85;;;18.90;99.90;;;;;;5064657;28;20056;-86
2023/07/29 06:58:43;;;;;;;11.88;3.47;;;18.90;99.90;;;;;;5058518;28;20447;-86
2023/07/29 07:01:12;;;;;;;10.90;4.35;;;18.90;99.90;;;;;;5058757;28;20151;-85
2023/07/29 07:03:38;;;;;;;9.88;3.53;;;18.90;99.90;;;;;;5041769;28;20388;-85
2023/07/29 07:06:14;;;;;;;10.77;3.60;;;18.90;99.90;;;;;;5041941;28;20028;-90
2023/07/29 07:08:51;;;;;;;9.65;3.80;;;19.00;99.90;;;;;;5043124;28;20040;-91
2023/07/29 07:11:21;;;;;;;16.65;4.15;;;18.90;99.90;;;;;;5043847;28;20046;-88
2023/07/29 07:13:49;;;;;;;13.63;3.70;;;19.00;99.90;;;;;;5042526;28;20427;-87
2023/07/29 07:16:18;;;;;;;13.77;4.03;;;19.00;99.90;;;;;;5058546;28;20484;-87
2023/07/29 07:18:49;;;;;;;12.27;3.70;;;19.00;99.90;;;;;;5042644;28;20407;-89
2023/07/29 07:22:04;;;;;;;13.55;3.95;;;19.00;99.90;;;;;;5059989;28;20440;-93
2023/07/29 07:24:58;;;;;;;11.43;3.40;;;19.10;99.90;;;;;;5047601;28;20037;-90
2023/07/29 07:27:59;;;;;;;;;;;;;;;;;;;;;
2023/07/29 07:35:02;;;;;;;10.95;3.65;;;19.30;99.90;;;;;;5068523;28;20043;-90
2023/07/29 07:37:36;;;;;;;10.98;3.38;;;19.30;99.90;;;;;;5028249;28;20095;-89
2023/07/29 07:40:11;;;;;;;14.30;3.55;;;19.20;99.90;;;;;;5006531;28;20451;-86
2023/07/29 07:42:37;;;;;;;9.13;2.88;;;19.20;99.90;;;;;;5021179;28;20127;-85
2023/07/29 07:45:03;;;;;;;14.00;3.53;;;19.20;99.90;;;;;;5005258;28;20404;-86
2023/07/29 07:47:32;;;;;;;12.70;3.55;;;19.30;99.90;;;;;;5033111;28;20451;-85
2023/07/29 07:49:58;;;;;;;12.60;3.53;;;19.30;99.90;;;;;;5024812;28;20075;-86
2023/07/29 07:52:24;;;;;;;10.50;3.05;;;19.30;99.90;;;;;;5024171;28;20060;-85
2023/07/29 07:54:54;;;;;;;8.93;3.40;;;19.40;99.90;;;;;;5040978;28;20104;-85
2023/07/29 07:57:24;;;;;;;10.23;3.53;;;19.40;99.90;;;;;;5057417;28;20053;-85
2023/07/29 07:59:52;;;;;;;13.10;3.28;;;19.40;99.90;;;;;;5024803;28;20376;-86
2023/07/29 08:02:19;;;;;;;9.98;3.00;;;19.50;99.90;;;;;;5025727;28;20036;-85
2023/07/29 08:04:44;;;;;;;9.25;2.92;;;19.60;99.90;;;;;;5024154;28;20052;-86
2023/07/29 08:07:10;;;;;;;9.23;2.70;;;19.50;99.90;;;;;;5040837;28;20091;-87
2023/07/29 08:09:36;;;;;;;10.05;2.58;;;19.60;99.90;;;;;;5041691;28;20029;-87
2023/07/29 08:12:05;;;;;;;8.88;2.90;;;19.70;99.90;;;;;;5040976;28;20408;-87
2023/07/29 08:14:36;;;;;;;9.65;2.85;;;19.70;99.90;;;;;;5041292;28;20028;-87
2023/07/29 08:17:02;;;;;;;9.35;2.60;;;19.80;99.90;;;;;;5056933;28;20428;-87
2023/07/29 08:19:28;;;;;;;10.98;3.00;;;19.80;99.90;;;;;;5024247;28;20036;-87
2023/07/29 08:21:54;;;;;;;8.13;2.47;;;19.80;99.90;;;;;;5007633;28;20036;-87
2023/07/29 08:24:20;;;;;;;9.52;2.47;;;19.80;99.90;;;;;;5024831;28;20091;-87
2023/07/29 08:26:46;;;;;;;7.68;2.38;;;19.80;99.90;;;;;;5024198;28;20052;-87
2023/07/29 08:29:20;;;;;;;6.18;2.03;;;19.70;99.90;;;;;;5011229;28;20055;-87
2023/07/29 08:31:48;;;;;;;9.63;2.20;;;19.70;99.90;;;;;;5009171;28;20032;-87
2023/07/29 08:34:17;;;;;;;8.27;2.35;;;19.80;99.90;;;;;;5024664;28;20039;-87
2023/07/29 08:36:45;;;;;;;10.15;3.13;;;19.90;99.90;;;;;;5040550;28;20094;-87
2023/07/29 08:39:11;;;;;;;5.68;2.10;;;19.90;99.90;;;;;;5040994;28;20438;-88
2023/07/29 08:41:47;;;;;;;7.63;2.30;;;19.90;99.90;;;;;;5057333;28;20037;-87
2023/07/29 08:44:27;;;;;;;8.50;2.65;;;20.00;99.90;;;;;;5040957;28;20135;-87
2023/07/29 08:46:57;;;;;;;8.05;2.47;;;20.10;99.90;;;;;;5037295;28;20027;-88
2023/07/29 08:49:26;;;;;;;8.70;1.98;;;20.10;99.90;;;;;;5004887;28;20032;-87
2023/07/29 08:51:53;;;;;;;6.05;1.95;;;20.20;99.90;;;;;;5004057;28;20044;-87
2023/07/29 08:54:27;;;;;;;3.97;1.73;;;20.20;99.90;;;;;;5036816;28;20059;-87
2023/07/29 08:56:53;;;;;;;5.85;1.90;;;20.20;99.90;;;;;;5037209;28;20052;-87
2023/07/29 08:59:21;;;;;;;7.40;2.05;;;20.20;99.90;;;;;;5021333;28;20061;-87
2023/07/29 09:01:50;;;;;;;7.00;2.08;;;20.20;99.90;;;;;;5004423;28;20037;-87
2023/07/29 09:04:17;;;;;;;7.68;2.15;;;20.20;99.90;;;;;;5020772;28;20087;-87
2023/07/29 09:06:50;;;;;;;8.13;2.28;;;20.20;99.90;;;;;;5020307;28;20123;-86
2023/07/29 09:09:20;;;;;;;8.70;2.20;;;20.20;99.90;;;;;;5021037;28;20083;-87
2023/07/29 09:11:49;;;;;;;5.70;1.70;;;20.30;99.90;;;;;;5036593;28;20021;-87
2023/07/29 09:14:15;;;;;;;5.15;1.90;;;20.40;99.90;;;;;;5037381;28;20064;-87
2023/07/29 09:16:43;;;;;;;8.23;2.05;;;20.40;99.90;;;;;;5022590;28;20036;-87
2023/07/29 09:19:12;;;;;;;7.05;2.00;;;20.50;99.90;;;;;;5041113;28;20041;-87
2023/07/29 09:21:44;;;;;;;6.72;1.90;;;20.50;99.90;;;;;;5024205;28;20079;-87
2023/07/29 09:24:10;;;;;;;6.95;2.28;;;20.50;99.90;;;;;;5024195;28;20070;-88
2023/07/29 09:26:48;;;;;;;5.65;1.98;;;20.60;99.90;;;;;;5025238;28;20036;-87
2023/07/29 09:29:14;;;;;;;8.18;2.85;;;20.60;99.90;;;;;;5024918;28;20029;-87
2023/07/29 09:31:40;;;;;;;6.95;2.25;;;20.70;99.90;;;;;;5040636;28;20432;-87
2023/07/29 09:34:06;;;;;;;5.32;2.08;;;20.70;99.90;;;;;;5007370;28;20037;-87
2023/07/29 09:36:36;;;;;;;7.82;1.83;;;20.70;99.90;;;;;;5024172;28;20037;-87
2023/07/29 09:39:03;;;;;;;8.30;2.95;;;20.70;99.90;;;;;;5023366;28;20033;-87
2023/07/29 09:41:31;;;;;;;8.35;2.10;;;20.80;99.90;;;;;;5024959;28;20040;-87
2023/07/29 09:44:03;;;;;;;8.27;2.47;;;20.80;99.90;;;;;;5023630;28;20061;-87
2023/07/29 09:46:35;;;;;;;5.82;1.95;;;20.80;99.90;;;;;;5027072;28;20027;-87
2023/07/29 09:49:06;;;;;;;6.32;2.10;;;20.80;99.90;;;;;;5043047;28;20040;-87
2023/07/29 09:51:38;;;;;;;11.40;2.20;;;20.80;99.90;;;;;;5043365;28;20033;-87
2023/07/29 09:54:05;;;;;;;8.88;2.42;;;20.70;99.90;;;;;;5043107;28;20051;-87
2023/07/29 09:56:33;;;;;;;6.97;2.03;;;20.60;99.90;;;;;;5076816;28;20033;-87
2023/07/29 09:58:59;;;;;;;6.30;2.05;;;20.60;99.90;;;;;;5059489;28;20055;-87
2023/07/29 10:01:25;;;;;;;8.68;2.00;;;20.70;99.90;;;;;;5043391;28;20382;-87
2023/07/29 10:03:52;;;;;;;7.63;2.28;;;20.90;99.90;;;;;;5039146;28;20099;-87
2023/07/29 10:06:21;;;;;;;6.38;1.77;;;21.10;99.90;;;;;;5040414;28;20135;-87
2023/07/29 10:08:49;;;;;;;5.13;1.90;;;21.30;99.90;;;;;;5059344;28;20098;-87
2023/07/29 10:11:20;;;;;;;6.38;2.35;;;21.60;99.90;;;;;;5043648;28;20044;-87
2023/07/29 10:13:54;;;;;;;9.25;1.90;;;21.70;99.90;;;;;;5044872;28;20391;-87
2023/07/29 10:16:21;;;;;;;6.43;2.20;;;21.60;99.90;;;;;;5043353;28;20269;-87
2023/07/29 10:18:48;;;;;;;8.65;2.20;;;21.50;99.90;;;;;;5042814;28;20024;-87
2023/07/29 10:21:15;;;;;;;6.82;2.00;;;21.40;99.90;;;;;;5059482;28;20097;-87
2023/07/29 10:23:49;;;;;;;5.60;1.90;;;21.30;99.90;;;;;;5042973;28;20035;-86
2023/07/29 10:26:20;;;;;;;7.07;1.58;;;21.40;99.90;;;;;;5059461;28;20065;-87
2023/07/29 10:28:52;;;;;;;4.80;1.50;;;21.40;99.90;;;;;;5058318;28;20416;-87
2023/07/29 10:31:23;;;;;;;4.15;1.30;;;21.40;99.90;;;;;;5076100;28;20104;-87
2023/07/29 10:33:49;;;;;;;3.03;1.23;;;21.50;99.90;;;;;;5059110;28;20113;-87
2023/07/29 10:36:18;;;;;;;6.07;1.70;;;21.40;99.90;;;;;;5042768;28;20036;-87
2023/07/29 10:38:44;;;;;;;3.10;1.60;;;21.50;99.90;;;;;;5026261;28;20033;-87
2023/07/29 10:41:10;;;;;;;5.30;1.73;;;21.50;99.90;;;;;;5026323;28;20427;-87
2023/07/29 10:43:40;;;;;;;10.38;2.00;;;21.50;99.90;;;;;;5059297;28;20036;-87
2023/07/29 10:46:19;;;;;;;6.22;2.05;;;21.50;99.90;;;;;;5042399;28;20033;-87
2023/07/29 10:48:53;;;;;;;7.57;2.08;;;21.40;99.90;;;;;;5043067;28;20082;-88
2023/07/29 10:51:25;;;;;;;5.32;1.88;;;21.40;99.90;;;;;;5043142;28;20047;-87
2023/07/29 10:53:59;;;;;;;6.38;2.00;;;21.40;99.90;;;;;;5048765;28;20124;-87
2023/07/29 10:56:36;;;;;;;6.45;1.88;;;21.40;99.90;;;;;;5055805;28;20032;-87
2023/07/29 10:59:20;;;;;;;5.10;1.58;;;21.50;99.90;;;;;;5022224;28;20049;-87
2023/07/29 11:01:56;;;;;;;4.35;1.60;;;21.40;99.90;;;;;;5038873;28;20041;-87
2023/07/29 11:04:30;;;;;;;5.25;1.70;;;21.20;99.90;;;;;;5055443;28;20444;-86
2023/07/29 11:07:06;;;;;;;5.47;2.00;;;21.10;99.90;;;;;;5020995;28;20025;-87
2023/07/29 11:09:42;;;;;;;5.00;1.80;;;20.90;99.90;;;;;;5021829;28;20112;-87
2023/07/29 11:12:39;;;;;;;5.03;2.05;;;20.70;99.90;;;;;;5054697;28;20025;-86
2023/07/29 11:15:12;;;;;;;4.55;2.00;;;20.50;99.90;;;;;;5055051;28;20310;-87
2023/07/29 11:17:44;;;;;;;5.47;2.00;;;20.40;99.90;;;;;;5038795;28;20041;-87
2023/07/29 11:20:11;;;;;;;7.45;2.10;;;20.40;99.90;;;;;;5038233;28;20086;-87
2023/07/29 11:22:38;;;;;;;4.07;1.65;;;20.40;99.90;;;;;;5021897;28;20033;-87
2023/07/29 11:25:08;;;;;;;5.22;1.60;;;20.40;99.90;;;;;;5021673;28;20082;-87
2023/07/29 11:27:34;;;;;;;4.72;1.77;;;20.40;99.90;;;;;;5054974;28;20114;-87
2023/07/29 11:30:04;;;;;;;4.00;1.83;;;20.50;99.90;;;;;;5021504;28;20376;-88
2023/07/29 11:32:34;;;;;;;5.95;2.05;;;20.60;99.90;;;;;;5021693;28;20052;-86
2023/07/29 11:35:09;;;;;;;5.63;1.88;;;20.80;99.90;;;;;;5021974;28;20032;-88
2023/07/29 11:37:37;;;;;;;9.48;1.90;;;20.90;99.90;;;;;;5037760;28;20036;-87
2023/07/29 11:40:22;;;;;;;6.25;1.75;;;20.90;99.90;;;;;;5022933;28;20118;-86
2023/07/29 11:42:51;;;;;;;7.07;1.83;;;21.00;99.90;;;;;;5021996;28;20090;-87
2023/07/29 11:45:18;;;;;;;3.88;1.40;;;21.00;99.90;;;;;;5021549;28;20377;-87
2023/07/29 11:47:47;;;;;;;5.90;1.80;;;21.20;99.90;;;;;;5054193;28;20423;-87
2023/07/29 11:50:14;;;;;;;4.35;1.67;;;21.30;99.90;;;;;;5037983;28;20032;-87
2023/07/29 11:52:48;;;;;;;5.38;1.70;;;21.40;99.90;;;;;;5021860;28;20089;-87
2023/07/29 11:55:15;;;;;;;7.60;1.88;;;21.50;99.90;;;;;;5022070;28;20104;-88
2023/07/29 11:57:44;;;;;;;5.85;2.00;;;21.50;99.90;;;;;;5038270;28;20184;-87
2023/07/29 12:00:11;;;;;;;5.80;1.70;;;21.50;99.90;;;;;;5021311;28;20416;-87
2023/07/29 12:02:44;;;;;;;6.35;1.70;;;21.40;99.90;;;;;;5037506;28;20494;-87
2023/07/29 12:05:14;;;;;;;6.82;1.77;;;21.30;99.90;;;;;;5038098;28;20108;-87
2023/07/29 12:07:42;;;;;;;6.15;1.90;;;21.30;99.90;;;;;;5053902;28;20021;-87
2023/07/29 12:10:10;;;;;;;7.20;2.40;;;21.20;99.90;;;;;;5021205;28;20036;-87
2023/07/29 12:12:46;;;;;;;6.32;1.90;;;21.20;99.90;;;;;;5021388;28;20090;-87
2023/07/29 12:15:13;;;;;;;7.45;2.05;;;21.20;99.90;;;;;;5022021;28;20025;-87
2023/07/29 12:17:44;;;;;;;6.95;1.80;;;21.20;99.90;;;;;;5005899;28;20574;-87
2023/07/29 12:20:11;;;;;;;4.63;1.80;;;21.20;99.90;;;;;;5005285;28;20488;-87
2023/07/29 12:22:37;;;;;;;9.63;2.10;;;21.20;99.90;;;;;;5021172;28;20063;-87
2023/07/29 12:25:04;;;;;;;6.95;2.33;;;21.20;99.90;;;;;;5037233;28;20331;-87
2023/07/29 12:27:31;;;;;;;6.43;1.77;;;21.20;99.90;;;;;;5037893;28;20310;-87
2023/07/29 12:30:00;;;;;;;5.28;1.77;;;21.10;99.90;;;;;;5021154;28;20029;-87
2023/07/29 12:32:29;;;;;;;9.88;2.08;;;21.20;99.90;;;;;;5022093;28;20037;-87
2023/07/29 12:34:55;;;;;;;6.60;2.00;;;21.20;99.90;;;;;;5021417;28;20305;-87
2023/07/29 12:37:32;;;;;;;8.43;2.60;;;21.30;99.90;;;;;;5036697;28;20387;-87
2023/07/29 12:39:58;;;;;;;6.78;1.98;;;21.30;99.90;;;;;;5037549;28;20025;-87
2023/07/29 12:42:24;;;;;;;8.38;2.20;;;21.30;99.90;;;;;;5004211;28;20040;-87
2023/07/29 12:44:50;;;;;;;9.73;2.58;;;21.50;99.90;;;;;;5037469;28;20447;-87
2023/07/29 12:47:16;;;;;;;7.13;2.20;;;21.50;99.90;;;;;;5030785;28;20289;-87
2023/07/29 12:49:42;;;;;;;9.40;2.08;;;21.60;99.90;;;;;;5075229;28;20028;-87
2023/07/29 12:52:08;;;;;;;5.63;1.92;;;21.70;99.90;;;;;;5043250;28;20032;-87
2023/07/29 12:54:37;;;;;;;6.00;2.33;;;21.80;99.90;;;;;;5062453;28;20040;-87